createdAt,value
2022-10-17T00:01:34.984Z,8.83
2022-10-17T00:04:02.497Z,8.27
2022-10-17T00:06:30.023Z,8.27
2022-10-17T00:08:58.366Z,8.20
2022-10-17T00:11:25.909Z,8.03
2022-10-17T00:13:53.437Z,8.03
2022-10-17T00:16:33.660Z,8.37
2022-10-17T00:19:01.195Z,8.50
2022-10-17T00:21:28.744Z,10.52
2022-10-17T00:23:56.274Z,9.97
2022-10-17T00:26:23.799Z,9.50
2022-10-17T00:28:51.397Z,8.90
2022-10-17T00:31:18.923Z,8.97
2022-10-17T00:33:46.445Z,8.07
2022-10-17T00:36:19.679Z,7.47
2022-10-17T00:38:47.234Z,8.07
2022-10-17T00:41:14.769Z,8.33
2022-10-17T00:43:57.033Z,8.70
2022-10-17T00:46:24.578Z,9.63
2022-10-17T00:48:52.151Z,8.80
2022-10-17T00:51:19.725Z,7.70
2022-10-17T00:53:47.251Z,7.57
2022-10-17T00:56:15.574Z,6.90
2022-10-17T00:58:43.108Z,7.70
2022-10-17T01:01:10.647Z,7.00
2022-10-17T01:03:39.004Z,7.07
2022-10-17T01:06:06.591Z,7.17
2022-10-17T01:08:34.124Z,7.67
2022-10-17T01:11:26.038Z,6.23
2022-10-17T01:13:53.572Z,5.77
2022-10-17T01:16:21.107Z,6.47
2022-10-17T01:18:54.639Z,6.87
2022-10-17T01:21:22.172Z,6.83
2022-10-17T01:24:14.105Z,5.40
2022-10-17T01:26:44.388Z,5.80
2022-10-17T01:29:12.720Z,6.20
2022-10-17T01:31:41.003Z,6.00
2022-10-17T01:34:11.581Z,6.50
2022-10-17T01:36:51.610Z,6.03
2022-10-17T01:39:19.137Z,6.33
2022-10-17T01:41:58.889Z,6.27
2022-10-17T01:44:35.305Z,6.60
2022-10-17T01:47:06.050Z,6.23
2022-10-17T01:49:33.574Z,6.40
2022-10-17T01:52:03.590Z,5.90
2022-10-17T01:54:52.395Z,6.57
2022-10-17T01:57:19.918Z,6.20
2022-10-17T01:59:48.225Z,5.73
2022-10-17T02:02:15.801Z,5.70
2022-10-17T02:04:43.324Z,5.90
2022-10-17T02:07:11.666Z,5.40
2022-10-17T02:09:39.201Z,5.87
2022-10-17T02:12:34.600Z,5.80
2022-10-17T02:15:14.100Z,5.97
2022-10-17T02:18:06.464Z,5.07
2022-10-17T02:20:36.722Z,5.10
2022-10-17T02:23:13.354Z,4.80
2022-10-17T02:25:43.750Z,4.50
2022-10-17T02:28:29.795Z,5.85
2022-10-17T02:31:16.303Z,6.03
2022-10-17T02:33:49.569Z,4.63
2022-10-17T02:36:19.816Z,5.10
2022-10-17T02:38:47.351Z,5.27
2022-10-17T02:41:15.683Z,4.63
2022-10-17T02:43:43.193Z,4.37
2022-10-17T02:46:10.738Z,5.40
2022-10-17T02:48:42.014Z,4.43
2022-10-17T02:51:15.409Z,4.77
2022-10-17T02:54:03.737Z,5.13
2022-10-17T02:56:31.292Z,4.87
2022-10-17T02:58:58.816Z,4.60
2022-10-17T03:01:26.457Z,5.30
2022-10-17T03:03:53.926Z,6.13
2022-10-17T03:06:21.479Z,5.83
2022-10-17T03:08:49.047Z,7.55
2022-10-17T03:11:16.983Z,5.68
2022-10-17T03:13:44.507Z,5.50
2022-10-17T03:16:12.799Z,4.70
2022-10-17T03:18:40.354Z,6.23
2022-10-17T03:21:07.924Z,9.68
2022-10-17T03:23:35.453Z,7.87
2022-10-17T03:26:03.805Z,7.27
2022-10-17T03:28:31.378Z,7.43
2022-10-17T03:30:58.845Z,8.73
2022-10-17T03:33:27.169Z,7.37
2022-10-17T03:35:54.704Z,6.20
2022-10-17T03:38:22.248Z,6.87
2022-10-17T03:40:56.518Z,6.50
2022-10-17T03:43:24.042Z,6.43
2022-10-17T03:45:51.568Z,5.30
2022-10-17T03:48:19.899Z,6.10
2022-10-17T03:50:47.426Z,6.03
2022-10-17T03:53:14.950Z,6.43
2022-10-17T03:55:42.533Z,6.20
2022-10-17T03:58:10.835Z,6.60
2022-10-17T04:00:38.380Z,7.30
2022-10-17T04:03:05.984Z,6.33
2022-10-17T04:05:33.509Z,7.87
2022-10-17T04:08:03.950Z,8.65
2022-10-17T04:10:29.375Z,6.70
2022-10-17T04:12:56.911Z,6.40
2022-10-17T04:15:24.445Z,6.90
2022-10-17T04:17:52.080Z,5.77
2022-10-17T04:20:19.554Z,5.63
2022-10-17T04:22:47.847Z,5.93
2022-10-17T04:25:15.441Z,6.57
2022-10-17T04:27:42.956Z,6.23
2022-10-17T04:30:11.367Z,6.20
2022-10-17T04:32:39.073Z,6.10
2022-10-17T04:35:06.515Z,6.00
2022-10-17T04:37:34.059Z,6.07
2022-10-17T04:40:01.667Z,7.57
2022-10-17T04:42:29.502Z,6.77
2022-10-17T04:44:56.743Z,6.47
2022-10-17T04:47:24.326Z,6.60
2022-10-17T04:49:51.874Z,5.93
2022-10-17T04:52:19.417Z,6.20
2022-10-17T04:54:47.006Z,5.77
2022-10-17T04:57:14.547Z,5.70
2022-10-17T04:59:42.083Z,6.17
2022-10-17T05:02:09.647Z,6.17
2022-10-17T05:04:37.180Z,6.20
2022-10-17T05:07:04.754Z,6.10
2022-10-17T05:09:33.148Z,6.47
2022-10-17T05:12:00.682Z,7.33
2022-10-17T05:14:28.205Z,6.87
2022-10-17T05:16:56.558Z,6.60
2022-10-17T05:19:24.092Z,6.97
2022-10-17T05:21:51.627Z,6.73
2022-10-17T05:24:19.210Z,7.57
2022-10-17T05:26:46.759Z,6.73
2022-10-17T05:29:14.330Z,6.40
2022-10-17T05:31:41.904Z,7.27
2022-10-17T05:34:11.620Z,8.05
2022-10-17T05:36:37.005Z,8.48
2022-10-17T05:39:04.578Z,6.67
2022-10-17T05:41:32.112Z,6.00
2022-10-17T05:44:03.080Z,6.37
2022-10-17T05:46:27.980Z,6.17
2022-10-17T05:48:55.526Z,7.10
2022-10-17T05:51:23.108Z,6.17
2022-10-17T05:53:50.694Z,7.10
2022-10-17T05:56:18.995Z,6.37
2022-10-17T05:58:51.538Z,6.93
2022-10-17T06:01:14.083Z,6.60
2022-10-17T06:03:42.390Z,7.27
2022-10-17T06:06:09.911Z,8.37
2022-10-17T06:08:38.263Z,6.50
2022-10-17T06:11:09.117Z,6.90
2022-10-17T06:13:33.362Z,8.88
2022-10-17T06:16:00.938Z,7.80
2022-10-17T06:18:28.471Z,7.03
2022-10-17T06:20:56.016Z,7.30
2022-10-17T06:23:24.193Z,7.03
2022-10-17T06:25:51.731Z,7.97
2022-10-17T06:28:20.022Z,8.10
2022-10-17T06:30:47.612Z,7.20
2022-10-17T06:33:15.127Z,7.43
2022-10-17T06:35:43.440Z,8.13
2022-10-17T06:38:11.024Z,7.67
2022-10-17T06:40:38.558Z,7.50
2022-10-17T06:43:06.083Z,7.50
2022-10-17T06:45:33.667Z,7.17
2022-10-17T06:48:01.202Z,7.93
2022-10-17T06:50:28.728Z,7.77
2022-10-17T06:52:56.311Z,7.80
2022-10-17T06:55:24.613Z,9.80
2022-10-17T06:57:52.159Z,8.07
2022-10-17T07:00:19.744Z,7.67
2022-10-17T07:02:47.287Z,8.33
2022-10-17T07:05:14.823Z,7.43
2022-10-17T07:07:44.822Z,7.40
2022-10-17T07:10:10.689Z,8.03
2022-10-17T07:12:38.223Z,7.87
2022-10-17T07:15:06.634Z,8.03
2022-10-17T07:17:34.249Z,8.90
2022-10-17T07:20:02.552Z,8.07
2022-10-17T07:22:31.139Z,8.70
2022-10-17T07:24:58.674Z,8.07
2022-10-17T07:27:27.212Z,8.97
2022-10-17T07:29:54.560Z,8.23
2022-10-17T07:32:22.086Z,9.13
2022-10-17T07:34:49.621Z,8.23
2022-10-17T07:37:17.965Z,8.10
2022-10-17T07:39:45.496Z,7.97
2022-10-17T07:42:13.032Z,8.37
2022-10-17T07:44:41.365Z,7.90
2022-10-17T07:47:08.899Z,7.97
2022-10-17T07:49:36.445Z,8.68
2022-10-17T07:52:04.018Z,6.87
2022-10-17T07:54:31.554Z,7.43
2022-10-17T07:56:59.087Z,6.83
2022-10-17T07:59:27.429Z,7.20
2022-10-17T08:01:57.711Z,7.63
2022-10-17T08:04:25.246Z,6.90
2022-10-17T08:06:56.390Z,6.83
2022-10-17T08:09:21.112Z,7.30
2022-10-17T08:11:48.628Z,7.43
2022-10-17T08:14:16.202Z,7.33
2022-10-17T08:16:43.727Z,7.13
2022-10-17T08:19:11.265Z,7.13
2022-10-17T08:21:38.835Z,6.47
2022-10-17T08:24:06.371Z,6.47
2022-10-17T08:26:33.915Z,6.50
2022-10-17T08:29:02.386Z,6.83
2022-10-17T08:31:29.782Z,7.10
2022-10-17T08:33:57.317Z,6.83
2022-10-17T08:36:24.914Z,6.77
2022-10-17T08:38:53.162Z,6.30
2022-10-17T08:41:25.523Z,6.73
2022-10-17T08:44:14.456Z,6.43
2022-10-17T08:46:42.757Z,6.30
2022-10-17T08:49:38.175Z,6.23
2022-10-17T08:52:08.181Z,6.53
2022-10-17T08:54:38.700Z,6.17
2022-10-17T08:57:07.091Z,6.10
2022-10-17T08:59:34.629Z,5.80
2022-10-17T09:02:02.150Z,6.00
2022-10-17T09:04:35.281Z,5.20
2022-10-17T09:07:37.225Z,5.45
2022-10-17T09:10:19.934Z,5.17
2022-10-17T09:12:49.999Z,5.28
2022-10-17T09:15:39.204Z,4.50
2022-10-17T09:18:22.151Z,4.87
2022-10-17T09:21:00.920Z,5.32
2022-10-17T09:23:35.456Z,4.50
2022-10-17T09:26:01.690Z,4.60
2022-10-17T09:28:35.201Z,4.65
2022-10-17T09:31:05.118Z,4.40
2022-10-17T09:33:53.281Z,4.33
2022-10-17T09:36:03.140Z,3.67
2022-10-17T09:38:37.469Z,3.80
2022-10-17T09:41:19.995Z,3.77
2022-10-17T09:43:32.568Z,4.27
2022-10-17T09:46:06.596Z,3.93
2022-10-17T09:48:37.365Z,3.93
2022-10-17T09:51:22.074Z,3.77
2022-10-17T09:53:32.475Z,3.80
2022-10-17T09:56:00.040Z,3.57
2022-10-17T09:58:48.635Z,3.37
2022-10-17T10:01:21.008Z,3.60
2022-10-17T10:03:44.501Z,3.53
2022-10-17T10:06:17.668Z,3.50
2022-10-17T10:08:51.425Z,2.90
2022-10-17T10:11:18.971Z,2.97
2022-10-17T10:13:46.505Z,2.93
2022-10-17T10:16:24.043Z,3.20
2022-10-17T10:18:51.598Z,3.10
2022-10-17T10:21:22.058Z,2.90
2022-10-17T10:24:07.433Z,2.77
2022-10-17T10:26:34.958Z,2.60
2022-10-17T10:29:02.576Z,2.63
2022-10-17T10:31:36.063Z,2.70
2022-10-17T10:34:04.358Z,3.63
2022-10-17T10:36:43.916Z,3.83
2022-10-17T10:39:11.437Z,3.00
2022-10-17T10:41:48.995Z,2.40
2022-10-17T10:44:16.511Z,2.50
2022-10-17T10:46:44.051Z,2.83
2022-10-17T10:49:11.865Z,2.40
2022-10-17T10:51:39.393Z,2.50
2022-10-17T10:54:12.341Z,2.90
2022-10-17T10:56:39.946Z,2.87
2022-10-17T10:59:10.158Z,3.05
2022-10-17T11:01:58.960Z,2.53
2022-10-17T11:04:31.943Z,2.87
2022-10-17T11:06:59.477Z,3.07
2022-10-17T11:09:30.098Z,2.77
2022-10-17T11:11:54.642Z,2.60
2022-10-17T11:14:22.139Z,2.17
2022-10-17T11:17:27.465Z,2.77
2022-10-17T11:20:09.521Z,2.80
2022-10-17T11:22:42.855Z,2.70
2022-10-17T11:25:35.449Z,2.53
2022-10-17T11:28:06.122Z,2.43
2022-10-17T11:30:36.364Z,2.40
2022-10-17T11:33:03.861Z,2.43
2022-10-17T11:35:31.435Z,2.40
2022-10-17T11:37:58.969Z,2.50
2022-10-17T11:40:26.507Z,2.50
2022-10-17T11:43:00.890Z,2.60
2022-10-17T11:45:28.416Z,2.07
2022-10-17T11:48:07.859Z,2.80
2022-10-17T11:53:05.662Z,2.73
2022-10-17T11:55:33.256Z,2.67
2022-10-17T11:58:22.689Z,2.62
2022-10-17T12:01:12.259Z,2.10
2022-10-17T12:04:04.291Z,2.50
2022-10-17T12:06:49.374Z,2.20
2022-10-17T12:09:31.872Z,2.60
2022-10-17T12:11:59.447Z,2.20
2022-10-17T12:14:36.179Z,2.47
2022-10-17T12:17:03.705Z,2.33
2022-10-17T12:19:34.558Z,2.30
2022-10-17T12:22:07.842Z,1.90
2022-10-17T12:24:41.883Z,1.83
2022-10-17T12:27:36.457Z,1.80
2022-10-17T12:30:12.842Z,1.97
2022-10-17T12:33:05.526Z,2.03
2022-10-17T12:35:23.026Z,2.30
2022-10-17T12:37:57.325Z,2.20
2022-10-17T12:40:35.977Z,2.07
2022-10-17T12:43:18.165Z,2.27
2022-10-17T12:45:54.282Z,2.50
2022-10-17T12:48:34.916Z,2.40
2022-10-17T12:51:37.397Z,2.80
2022-10-17T12:53:47.522Z,2.37
2022-10-17T12:56:15.043Z,2.40
2022-10-17T12:58:45.541Z,2.17
2022-10-17T13:01:24.220Z,2.37
2022-10-17T13:03:43.402Z,2.60
2022-10-17T13:06:17.687Z,2.27
2022-10-17T13:08:45.211Z,3.05
2022-10-17T13:11:13.504Z,2.30
2022-10-17T13:13:43.926Z,2.73
2022-10-17T13:16:33.622Z,2.60
2022-10-17T13:19:01.187Z,2.07
2022-10-17T13:21:28.829Z,2.30
2022-10-17T13:23:56.291Z,2.47
2022-10-17T13:26:27.770Z,2.37
2022-10-17T13:29:04.618Z,2.53
2022-10-17T13:31:34.723Z,2.20
2022-10-17T13:34:02.227Z,2.60
2022-10-17T13:36:29.772Z,2.27
2022-10-17T13:39:00.118Z,2.40
2022-10-17T13:41:35.751Z,2.63
2022-10-17T13:43:55.164Z,2.47
2022-10-17T13:46:38.000Z,2.30
2022-10-17T13:48:57.304Z,2.60
2022-10-17T13:51:24.837Z,2.57
2022-10-17T13:53:52.411Z,2.50
2022-10-17T13:56:28.775Z,2.20
2022-10-17T13:58:47.480Z,2.50
2022-10-17T14:01:15.150Z,2.50
2022-10-17T14:03:48.731Z,2.87
2022-10-17T14:06:15.806Z,2.73
2022-10-17T14:08:49.673Z,2.40
2022-10-17T14:11:17.211Z,2.40
2022-10-17T14:13:44.744Z,2.57
2022-10-17T14:16:12.317Z,2.23
2022-10-17T14:18:39.849Z,2.53
2022-10-17T14:23:41.525Z,2.00
2022-10-17T14:26:15.583Z,2.27
2022-10-17T14:28:43.156Z,2.10
2022-10-17T14:31:10.687Z,2.37
2022-10-17T14:33:41.497Z,2.37
2022-10-17T14:36:06.525Z,2.50
2022-10-17T14:38:34.129Z,2.10
2022-10-17T14:41:37.481Z,2.20
2022-10-17T14:43:30.714Z,2.30
2022-10-17T14:45:58.289Z,2.30
2022-10-17T14:48:25.820Z,2.20
2022-10-17T14:51:12.162Z,2.60
2022-10-17T14:53:39.708Z,2.50
2022-10-17T14:56:22.195Z,2.80
2022-10-17T14:58:49.742Z,2.40
2022-10-17T15:01:18.056Z,2.20
2022-10-17T15:03:45.702Z,2.30
2022-10-17T15:06:15.988Z,2.70
2022-10-17T15:11:11.828Z,2.70
2022-10-17T15:13:44.678Z,3.67
2022-10-17T15:16:14.463Z,4.20
2022-10-17T15:18:42.528Z,3.20
2022-10-17T15:21:26.505Z,2.70
2022-10-17T15:23:43.863Z,2.50
2022-10-17T15:26:12.200Z,2.33
2022-10-17T15:28:39.750Z,2.70
2022-10-17T15:31:07.261Z,2.20
2022-10-17T15:33:35.627Z,2.63
2022-10-17T15:36:03.167Z,2.27
2022-10-17T15:38:30.699Z,2.87
2022-10-17T15:40:58.594Z,2.58
2022-10-17T15:43:26.139Z,2.40
2022-10-17T15:45:53.702Z,2.60
2022-10-17T15:48:21.266Z,2.80
2022-10-17T15:50:48.801Z,2.60
2022-10-17T15:53:16.327Z,2.63
2022-10-17T15:55:44.659Z,2.40
2022-10-17T15:58:18.171Z,2.60
2022-10-17T16:00:45.791Z,2.50
2022-10-17T16:03:13.346Z,2.92
2022-10-17T16:05:41.045Z,2.77
2022-10-17T16:08:08.746Z,2.27
2022-10-17T16:10:38.035Z,2.67
2022-10-17T16:13:06.337Z,2.60
2022-10-17T16:15:33.870Z,2.70
2022-10-17T16:18:05.877Z,3.27
2022-10-17T16:20:29.799Z,2.67
2022-10-17T16:22:58.099Z,3.40
2022-10-17T16:25:25.672Z,3.23
2022-10-17T16:27:53.447Z,3.57
2022-10-17T16:32:48.552Z,3.60
2022-10-17T16:35:18.916Z,3.20
2022-10-17T16:37:46.441Z,3.23
2022-10-17T16:40:14.005Z,3.20
2022-10-17T16:42:41.540Z,3.37
2022-10-17T16:45:09.064Z,3.57
2022-10-17T16:47:36.629Z,3.37
2022-10-17T16:50:04.173Z,3.37
2022-10-17T16:52:32.011Z,3.73
2022-10-17T16:55:04.140Z,4.53
2022-10-17T16:57:32.519Z,3.83
2022-10-17T16:59:59.965Z,4.03
2022-10-17T17:02:27.519Z,3.87
2022-10-17T17:04:55.045Z,3.40
2022-10-17T17:07:22.577Z,3.67
2022-10-17T17:09:50.179Z,3.57
2022-10-17T17:12:17.708Z,3.63
2022-10-17T17:14:45.239Z,4.17
2022-10-17T17:17:19.672Z,3.40
2022-10-17T17:19:40.681Z,2.97
2022-10-17T17:22:08.200Z,3.90
2022-10-17T17:24:36.650Z,4.47
2022-10-17T17:27:04.075Z,3.73
2022-10-17T17:29:31.601Z,4.07
2022-10-17T17:31:59.961Z,3.40
2022-10-17T17:34:27.801Z,3.57
2022-10-17T17:36:55.326Z,3.87
2022-10-17T17:39:22.902Z,3.90
2022-10-17T17:41:50.426Z,4.27
2022-10-17T17:44:18.718Z,4.20
2022-10-17T17:46:46.313Z,4.77
2022-10-17T17:49:13.847Z,4.60
2022-10-17T17:51:41.426Z,4.20
2022-10-17T17:54:08.987Z,4.30
2022-10-17T17:56:36.580Z,4.50
2022-10-17T17:59:04.105Z,4.60
2022-10-17T18:01:31.829Z,5.17
2022-10-17T18:03:59.227Z,4.40
2022-10-17T18:06:26.749Z,5.30
2022-10-17T18:08:55.081Z,4.80
2022-10-17T18:11:22.618Z,4.67
2022-10-17T18:13:55.945Z,4.87
2022-10-17T18:16:24.058Z,4.90
2022-10-17T18:18:51.606Z,4.73
2022-10-17T18:21:19.891Z,4.33
2022-10-17T18:23:47.540Z,5.00
2022-10-17T18:26:15.043Z,5.63
2022-10-17T18:31:17.136Z,7.60
2022-10-17T18:33:44.690Z,6.90
2022-10-17T18:36:12.197Z,6.20
2022-10-17T18:38:40.528Z,6.13
2022-10-17T18:41:08.066Z,6.40
2022-10-17T18:43:35.618Z,5.63
2022-10-17T18:46:10.947Z,6.00
2022-10-17T18:48:34.725Z,5.57
2022-10-17T18:51:02.280Z,5.90
2022-10-17T18:53:29.855Z,5.63
2022-10-17T18:55:57.400Z,6.53
2022-10-17T18:58:24.923Z,6.17
2022-10-17T19:00:53.256Z,6.13
2022-10-17T19:03:20.781Z,6.83
2022-10-17T19:05:48.319Z,7.30
2022-10-17T19:08:16.696Z,7.20
2022-10-17T19:10:44.193Z,7.23
2022-10-17T19:13:11.719Z,8.47
2022-10-17T19:15:40.106Z,7.10
2022-10-17T19:18:07.801Z,6.83
2022-10-17T19:20:35.324Z,7.50
2022-10-17T19:23:03.654Z,7.63
2022-10-17T19:25:31.196Z,6.73
2022-10-17T19:27:58.716Z,7.00
2022-10-17T19:30:27.058Z,7.40
2022-10-17T19:32:54.600Z,7.43
2022-10-17T19:35:22.155Z,8.07
2022-10-17T19:37:49.730Z,7.40
2022-10-17T19:40:17.261Z,7.13
2022-10-17T19:42:44.875Z,7.57
2022-10-17T19:45:13.224Z,6.90
2022-10-17T19:47:40.761Z,7.67
2022-10-17T19:50:08.358Z,5.90
2022-10-17T19:52:35.938Z,7.17
2022-10-17T19:55:04.294Z,8.23
2022-10-17T19:57:31.839Z,8.60
2022-10-17T19:59:59.424Z,8.82
2022-10-17T20:02:26.971Z,8.52
2022-10-17T20:05:06.641Z,7.00
2022-10-17T20:07:22.047Z,7.37
2022-10-17T20:09:49.572Z,6.87
2022-10-17T20:12:17.864Z,6.17
2022-10-17T20:14:45.466Z,6.67
2022-10-17T20:17:12.974Z,6.73
2022-10-17T20:19:41.287Z,6.40
2022-10-17T20:22:08.850Z,7.43
2022-10-17T20:24:36.396Z,6.57
2022-10-17T20:27:03.929Z,7.03
2022-10-17T20:29:32.252Z,6.67
2022-10-17T20:31:59.796Z,7.07
2022-10-17T20:34:27.422Z,6.47
2022-10-17T20:36:54.955Z,6.27
2022-10-17T20:39:22.501Z,7.37
2022-10-17T20:41:50.033Z,7.78
2022-10-17T20:44:17.609Z,7.20
2022-10-17T20:46:57.641Z,7.87
2022-10-17T20:49:15.308Z,7.13
2022-10-17T20:51:43.136Z,7.77
2022-10-17T20:54:10.845Z,8.97
2022-10-17T20:56:38.365Z,7.60
2022-10-17T20:59:05.937Z,7.50
2022-10-17T21:01:33.510Z,8.20
2022-10-17T21:04:20.698Z,8.50
2022-10-17T21:06:28.606Z,7.87
2022-10-17T21:08:56.148Z,8.10
2022-10-17T21:11:23.702Z,7.50
2022-10-17T21:13:54.450Z,7.60
2022-10-17T21:16:21.985Z,7.13
2022-10-17T21:18:52.293Z,7.10
2022-10-17T21:21:23.283Z,6.87
2022-10-17T21:23:50.818Z,6.67
2022-10-17T21:26:18.344Z,6.40
2022-10-17T21:28:46.716Z,6.00
2022-10-17T21:31:16.888Z,6.63
2022-10-17T21:33:44.424Z,8.10
2022-10-17T21:36:12.027Z,5.70
2022-10-17T21:38:39.571Z,5.47
2022-10-17T21:41:07.096Z,6.13
2022-10-17T21:43:34.661Z,6.70
2022-10-17T21:46:02.189Z,6.27
2022-10-17T21:48:29.722Z,6.57
2022-10-17T21:50:57.295Z,7.10
2022-10-17T21:53:24.829Z,6.77
2022-10-17T21:55:52.365Z,7.23
2022-10-17T21:58:19.952Z,7.23
2022-10-17T22:00:47.474Z,7.80
2022-10-17T22:03:15.018Z,8.17
2022-10-17T22:05:42.602Z,6.80
2022-10-17T22:08:10.127Z,7.67
2022-10-17T22:10:38.449Z,7.33
2022-10-17T22:13:06.015Z,7.60
2022-10-17T22:15:33.540Z,7.13
2022-10-17T22:18:01.063Z,7.20
2022-10-17T22:20:28.628Z,7.77
2022-10-17T22:22:56.162Z,8.47
2022-10-17T22:25:23.720Z,7.50
2022-10-17T22:27:51.312Z,9.38
2022-10-17T22:30:19.613Z,9.17
2022-10-17T22:32:47.168Z,8.13
2022-10-17T22:35:15.520Z,7.87
2022-10-17T22:37:43.828Z,8.83
2022-10-17T22:40:11.505Z,8.10
2022-10-17T22:42:39.108Z,7.43
2022-10-17T22:45:06.655Z,7.77
2022-10-17T22:47:34.188Z,8.70
2022-10-17T22:50:01.763Z,8.23
2022-10-17T22:52:29.574Z,7.60
2022-10-17T22:54:56.812Z,7.90
2022-10-17T22:57:24.376Z,9.23
2022-10-17T22:59:52.708Z,7.97
2022-10-17T23:02:20.225Z,11.10
2022-10-17T23:04:48.536Z,11.87
2022-10-17T23:07:16.082Z,12.30
2022-10-17T23:09:43.609Z,12.70
2022-10-17T23:12:11.968Z,8.70
2022-10-17T23:14:39.492Z,7.60
2022-10-17T23:17:07.037Z,11.55
2022-10-17T23:19:34.897Z,9.70
2022-10-17T23:22:02.442Z,7.97
2022-10-17T23:24:30.755Z,8.57
2022-10-17T23:26:58.328Z,6.73
2022-10-17T23:29:25.862Z,6.10
2022-10-17T23:31:56.322Z,5.37
2022-10-17T23:34:23.856Z,5.10
2022-10-17T23:36:54.287Z,5.90
2022-10-17T23:39:21.832Z,5.93
2022-10-17T23:41:49.405Z,6.50
2022-10-17T23:44:16.961Z,6.30
2022-10-17T23:46:45.234Z,6.30
2022-10-17T23:49:12.786Z,6.97
2022-10-17T23:51:40.321Z,7.20
2022-10-17T23:54:07.848Z,6.40
2022-10-17T23:56:35.430Z,5.50
2022-10-17T23:59:03.735Z,7.12
